Aviation Digital Data Service (ADDS)

Output produced by METARs form (1856 UTC 23 January 2019)
found at http://aviationweather.gov/metar/data/
 
KNEW 231853Z 31026G35KT 1/4SM +RA FG BKN016 OVC022 13/12 A2988 RMK AO2 PK WND 31037/1835 WSHFT 1821 RAB16 SLP110 P0025 T01330117
KNEW 231849Z 31029G35KT 3/4SM RA BR FEW006 BKN016 OVC022 13/12 A2987 RMK AO2 PK WND 31037/1835 WSHFT 1821 RAB16 P0014
KNEW 231845Z 31027G34KT 1 3/4SM RA BR FEW006 BKN013 OVC018 13/12 A2987 RMK AO2 PK WND 31037/1835 WSHFT 1821 RAB16 P0007 T01330122
KNEW 231841Z 31027G37KT 4SM -RA BR FEW006 OVC015 14/12 A2987 RMK AO2 PK WND 31037/1835 WSHFT 1821 RAB16 P0006 T01390122
KNEW 231833Z 30024G35KT 9SM -RA FEW006 BKN013 OVC019 14/13 A2988 RMK AO2 PK WND 31035/1830 WSHFT 1807 RAB16 PRESRR P0005 T01440128
KNEW 231826Z 26019G30KT 230V290 2SM -RA BR BKN008 BKN015 OVC038 14/12 A2986 RMK AO2 PK WND 20030/1809 WSHFT 1807 RAB16 CIG 005V011 PRESRR P0005 T01390122
KNEW 231821Z 26018G29KT 1 3/4SM +RA BR SCT010 BKN015 OVC038 15/13 A2986 RMK AO2 PK WND 20030/1809 WSHFT 1807 RAB16 PRESRR P0005 T01500133
KNEW 231817Z 27025G30KT 2 1/2SM -RA BR SCT015 BKN029 OVC050 19/17 A2985 RMK AO2 PK WND 20030/1809 RAB16 P0004 T01890172
KNEW 231738Z 2318/2418 20015G23KT 3SM -SHRA SCT025 OVC050 
     TEMPO 2318/2320 30017G23KT 1/2SM +TSRA BKN020CB 
     FM232000 30018G26KT 5SM -SHRA BKN015 
     FM240130 31020G27KT P6SM OVC018 
     FM240500 32020G27KT P6SM BKN025 OVC050 
     FM241000 33013KT P6SM SCT250